Portada
METAR-TAF:

METAR-TAF

Aeropuertos :

Laurel, Misisipi, Estados Unidos

latitud: 31-40-23N, longitud: 089-10-22W, altitud: 73 m

Observación

El informe se hizo hace 20 minutos, a las 20:15 UTC
Viento 15 kt del oeste con ráfagas de 23 kt
Temperatura 20°C
Humedad 24%
Presión 1015 hPa
Visibilidad: 16.1 km
Cielo despejado

METAR: KLUL 202015Z AUTO 27015G23KT 10SM CLR 20/M01 A2996 RMK A02 T02041009

Hora: 15:35 (20:35 UTC)


TAF: falta

Observaciones y pronósticos meteorológicos de más de 4000 aeropuertos (mensajes METAR y TAF).

Los puntos amarillos y rojos representan las estaciones disponibles.

Ponga el ratón en el punto deseado para ver el nombre de la estación.

Haga clic para ver las observaciones y los pronósticos meteorológicos.

Para cambiar el mapa : haga clic en los botones verdes con una cruz de color negro para hacer un zoom, en el botón verde con un guión para alejar o en las flechas verdes para mapas adyacentes.


METAR-TAF: